Saint-Georges, Canada
Current Conditions -  °F | °C
As of 7:39 AM on Monday 24 Nov 2014 (Local Time) from CYQB Reporting Station
Light Rain Light Rain  
Wind Chill: 30°   Ceiling: 3700
Heat Index: 37°   Visibility: 1.5mi
Dew Point: 36°   Wind: 10mph
Humidity: 93%   Direction: 60°ENE
Pressure: 29.75"   Gusts: NA
Location:  46.12°N, 70.67°W
Report Text: CYQB 241239Z 06009KT 1 1/2SM -RA BR FEW002 OVC037 03/02 A2975 RMK SF2SC6 SLP077
Loading
Personal Weather Stations






























Interactive Weather Map New forecast layout! Learn more

10-Day Weather Forecast

Advertisements
Track Severe Weather on mobile